EGLT weather

Ascot Racecourse Heliport
Ascot Heath, England, United Kingdom

Public forecast

Using degrees Celsius for public forecast. Weather courtesy of forecast.io.

METAR (pilot weather report)

Closest report is London Heathrow Airport, 7.8 nm (14.5 km) ENE. Retrieved 2019/03/21 13:20 UTC (4 minutes ago):

EGLL 211320Z AUTO 27006KT 230V300 9999 OVC019 13/09 Q1034 NOSIG

TAF (pilot weather forecast)

Closest forecast is London Heathrow Airport, 7.8 nm (14.5 km) ENE. Retrieved 2019/03/21 12:00 UTC (1 hour ago):

TAF EGLL 211054Z 2112/2218 24006KT 9999 BKN016 PROB40 2119/2124 9000 NSC TEMPO 2200/2208 8000 BKN010 PROB30 TEMPO 2200/2206 BKN007